sensor_id;sensor_type;location;lat;lon;timestamp;temperature;humidity
61351;DHT22;47119;49.130;9.218;2022-12-07T00:01:44;11.66;63.44
61351;DHT22;47119;49.130;9.218;2022-12-07T00:04:16;11.68;63.47
61351;DHT22;47119;49.130;9.218;2022-12-07T00:06:46;11.69;64.01
61351;DHT22;47119;49.130;9.218;2022-12-07T00:09:19;11.69;63.55
61351;DHT22;47119;49.130;9.218;2022-12-07T00:11:49;11.61;64.03
61351;DHT22;47119;49.130;9.218;2022-12-07T00:14:18;11.66;63.77
61351;DHT22;47119;49.130;9.218;2022-12-07T00:16:48;11.66;63.85
61351;DHT22;47119;49.130;9.218;2022-12-07T00:19:18;11.65;63.56
61351;DHT22;47119;49.130;9.218;2022-12-07T00:21:48;11.64;63.90
61351;DHT22;47119;49.130;9.218;2022-12-07T00:24:15;11.64;63.85
61351;DHT22;47119;49.130;9.218;2022-12-07T00:26:43;11.64;63.63
61351;DHT22;47119;49.130;9.218;2022-12-07T00:29:15;11.65;63.89
61351;DHT22;47119;49.130;9.218;2022-12-07T00:31:46;11.66;63.75
61351;DHT22;47119;49.130;9.218;2022-12-07T00:34:14;11.64;63.76
61351;DHT22;47119;49.130;9.218;2022-12-07T00:36:45;11.64;63.54
61351;DHT22;47119;49.130;9.218;2022-12-07T00:39:19;11.62;63.99
61351;DHT22;47119;49.130;9.218;2022-12-07T00:41:46;11.65;63.79
61351;DHT22;47119;49.130;9.218;2022-12-07T00:44:14;11.66;63.57
61351;DHT22;47119;49.130;9.218;2022-12-07T00:46:43;11.64;63.71
61351;DHT22;47119;49.130;9.218;2022-12-07T00:49:19;11.61;63.83
61351;DHT22;47119;49.130;9.218;2022-12-07T00:51:49;11.66;63.78
61351;DHT22;47119;49.130;9.218;2022-12-07T00:54:17;11.62;64.02
61351;DHT22;47119;49.130;9.218;2022-12-07T00:56:44;11.62;63.77
61351;DHT22;47119;49.130;9.218;2022-12-07T00:59:14;11.61;64.12
61351;DHT22;47119;49.130;9.218;2022-12-07T01:01:41;11.61;63.99
61351;DHT22;47119;49.130;9.218;2022-12-07T01:04:10;11.64;64.08
61351;DHT22;47119;49.130;9.218;2022-12-07T01:06:38;11.62;63.89
61351;DHT22;47119;49.130;9.218;2022-12-07T01:09:07;11.62;63.80
61351;DHT22;47119;49.130;9.218;2022-12-07T01:11:34;11.62;63.98
61351;DHT22;47119;49.130;9.218;2022-12-07T01:14:01;11.64;63.75
61351;DHT22;47119;49.130;9.218;2022-12-07T01:16:31;11.61;63.23
61351;DHT22;47119;49.130;9.218;2022-12-07T01:19:02;11.64;63.70
61351;DHT22;47119;49.130;9.218;2022-12-07T01:21:32;11.64;63.56
61351;DHT22;47119;49.130;9.218;2022-12-07T01:24:04;11.61;63.65
61351;DHT22;47119;49.130;9.218;2022-12-07T01:26:38;11.62;63.66
61351;DHT22;47119;49.130;9.218;2022-12-07T01:29:06;11.65;63.60
61351;DHT22;47119;49.130;9.218;2022-12-07T01:31:38;11.65;63.70
61351;DHT22;47119;49.130;9.218;2022-12-07T01:34:05;11.64;63.71
61351;DHT22;47119;49.130;9.218;2022-12-07T01:36:36;11.65;63.85
61351;DHT22;47119;49.130;9.218;2022-12-07T01:39:06;11.61;63.63
61351;DHT22;47119;49.130;9.218;2022-12-07T01:41:37;11.64;63.85
61351;DHT22;47119;49.130;9.218;2022-12-07T01:44:10;11.61;63.70
61351;DHT22;47119;49.130;9.218;2022-12-07T01:46:43;11.64;63.68
61351;DHT22;47119;49.130;9.218;2022-12-07T01:49:16;11.64;63.52
61351;DHT22;47119;49.130;9.218;2022-12-07T01:51:48;11.66;63.52
61351;DHT22;47119;49.130;9.218;2022-12-07T01:54:21;11.64;63.69
61351;DHT22;47119;49.130;9.218;2022-12-07T01:56:51;11.62;63.68
61351;DHT22;47119;49.130;9.218;2022-12-07T01:59:24;11.64;63.53
61351;DHT22;47119;49.130;9.218;2022-12-07T02:01:53;11.65;63.76
61351;DHT22;47119;49.130;9.218;2022-12-07T02:04:22;11.66;63.87
61351;DHT22;47119;49.130;9.218;2022-12-07T02:06:58;11.66;63.58
61351;DHT22;47119;49.130;9.218;2022-12-07T02:09:29;11.66;64.07
61351;DHT22;47119;49.130;9.218;2022-12-07T02:11:57;11.65;63.52
61351;DHT22;47119;49.130;9.218;2022-12-07T02:14:25;11.65;63.63
61351;DHT22;47119;49.130;9.218;2022-12-07T02:17:03;11.65;63.78
61351;DHT22;47119;49.130;9.218;2022-12-07T02:20:09;11.61;63.83
61351;DHT22;47119;49.130;9.218;2022-12-07T02:23:20;11.59;63.86
61351;DHT22;47119;49.130;9.218;2022-12-07T02:29:21;11.62;63.53
61351;DHT22;47119;49.130;9.218;2022-12-07T02:31:56;11.64;63.59
61351;DHT22;47119;49.130;9.218;2022-12-07T02:34:38;11.61;63.50
61351;DHT22;47119;49.130;9.218;2022-12-07T02:37:25;11.59;63.69
61351;DHT22;47119;49.130;9.218;2022-12-07T02:40:05;11.58;63.28
61351;DHT22;47119;49.130;9.218;2022-12-07T02:42:40;11.59;63.50
61351;DHT22;47119;49.130;9.218;2022-12-07T02:45:17;11.58;63.80
61351;DHT22;47119;49.130;9.218;2022-12-07T02:47:51;11.61;63.64
61351;DHT22;47119;49.130;9.218;2022-12-07T02:50:24;11.62;63.26
61351;DHT22;47119;49.130;9.218;2022-12-07T02:52:58;11.61;63.67
61351;DHT22;47119;49.130;9.218;2022-12-07T02:55:30;11.58;63.72
61351;DHT22;47119;49.130;9.218;2022-12-07T02:58:23;11.59;63.87
61351;DHT22;47119;49.130;9.218;2022-12-07T03:01:07;11.51;63.66
61351;DHT22;47119;49.130;9.218;2022-12-07T03:03:44;11.55;64.12
61351;DHT22;47119;49.130;9.218;2022-12-07T03:06:26;11.51;63.60
61351;DHT22;47119;49.130;9.218;2022-12-07T03:09:04;11.48;64.04
61351;DHT22;47119;49.130;9.218;2022-12-07T03:11:45;11.50;64.02
61351;DHT22;47119;49.130;9.218;2022-12-07T03:14:19;11.46;63.89
61351;DHT22;47119;49.130;9.218;2022-12-07T03:16:59;11.45;63.55
61351;DHT22;47119;49.130;9.218;2022-12-07T03:19:32;11.42;64.51
61351;DHT22;47119;49.130;9.218;2022-12-07T03:22:04;11.39;63.92
61351;DHT22;47119;49.130;9.218;2022-12-07T03:24:38;11.37;63.97
61351;DHT22;47119;49.130;9.218;2022-12-07T03:27:14;11.39;64.24
61351;DHT22;47119;49.130;9.218;2022-12-07T03:29:50;11.37;64.20
61351;DHT22;47119;49.130;9.218;2022-12-07T03:32:30;11.34;63.95
61351;DHT22;47119;49.130;9.218;2022-12-07T03:35:05;11.34;64.25
61351;DHT22;47119;49.130;9.218;2022-12-07T03:37:36;11.35;64.12
61351;DHT22;47119;49.130;9.218;2022-12-07T03:40:14;11.35;64.47
61351;DHT22;47119;49.130;9.218;2022-12-07T03:42:49;11.32;64.23
61351;DHT22;47119;49.130;9.218;2022-12-07T03:45:19;11.31;63.85
61351;DHT22;47119;49.130;9.218;2022-12-07T03:48:01;11.28;64.00
61351;DHT22;47119;49.130;9.218;2022-12-07T03:50:40;11.31;64.04
61351;DHT22;47119;49.130;9.218;2022-12-07T03:53:15;11.39;64.64
61351;DHT22;47119;49.130;9.218;2022-12-07T03:55:53;11.48;64.56
61351;DHT22;47119;49.130;9.218;2022-12-07T03:58:23;11.55;64.16
61351;DHT22;47119;49.130;9.218;2022-12-07T04:00:53;11.57;63.41
61351;DHT22;47119;49.130;9.218;2022-12-07T04:03:22;11.62;63.23
61351;DHT22;47119;49.130;9.218;2022-12-07T04:05:49;11.68;62.73
61351;DHT22;47119;49.130;9.218;2022-12-07T04:08:19;11.65;62.66
61351;DHT22;47119;49.130;9.218;2022-12-07T04:10:49;11.69;62.65
61351;DHT22;47119;49.130;9.218;2022-12-07T04:13:16;11.68;62.56
61351;DHT22;47119;49.130;9.218;2022-12-07T04:15:43;11.74;62.53
61351;DHT22;47119;49.130;9.218;2022-12-07T04:18:10;11.76;62.52
61351;DHT22;47119;49.130;9.218;2022-12-07T04:20:39;11.76;62.47
61351;DHT22;47119;49.130;9.218;2022-12-07T04:23:09;11.72;62.25
61351;DHT22;47119;49.130;9.218;2022-12-07T04:25:38;11.75;62.44
61351;DHT22;47119;49.130;9.218;2022-12-07T04:28:06;11.76;62.66
61351;DHT22;47119;49.130;9.218;2022-12-07T04:30:33;11.75;62.39
61351;DHT22;47119;49.130;9.218;2022-12-07T04:33:00;11.69;62.47
61351;DHT22;47119;49.130;9.218;2022-12-07T04:35:28;11.69;62.57
61351;DHT22;47119;49.130;9.218;2022-12-07T04:37:57;11.69;62.11
61351;DHT22;47119;49.130;9.218;2022-12-07T04:40:27;11.64;62.59
61351;DHT22;47119;49.130;9.218;2022-12-07T04:42:54;11.62;62.58
61351;DHT22;47119;49.130;9.218;2022-12-07T04:45:21;11.62;62.68
61351;DHT22;47119;49.130;9.218;2022-12-07T04:47:48;11.61;62.61
61351;DHT22;47119;49.130;9.218;2022-12-07T04:50:15;11.62;62.97
61351;DHT22;47119;49.130;9.218;2022-12-07T04:52:45;11.62;63.38
61351;DHT22;47119;49.130;9.218;2022-12-07T04:55:13;11.62;63.12
61351;DHT22;47119;49.130;9.218;2022-12-07T04:57:43;11.62;63.45
61351;DHT22;47119;49.130;9.218;2022-12-07T05:00:10;11.59;63.32
61351;DHT22;47119;49.130;9.218;2022-12-07T05:02:38;11.58;63.41
61351;DHT22;47119;49.130;9.218;2022-12-07T05:05:05;11.59;63.34
61351;DHT22;47119;49.130;9.218;2022-12-07T05:07:33;11.57;63.10
61351;DHT22;47119;49.130;9.218;2022-12-07T05:10:00;11.58;63.25
61351;DHT22;47119;49.130;9.218;2022-12-07T05:12:31;11.55;62.97
61351;DHT22;47119;49.130;9.218;2022-12-07T05:14:58;11.55;63.51
61351;DHT22;47119;49.130;9.218;2022-12-07T05:17:25;11.52;63.42
61351;DHT22;47119;49.130;9.218;2022-12-07T05:19:55;11.54;63.37
61351;DHT22;47119;49.130;9.218;2022-12-07T05:22:22;11.57;63.67
61351;DHT22;47119;49.130;9.218;2022-12-07T05:24:53;11.50;63.42
61351;DHT22;47119;49.130;9.218;2022-12-07T05:27:23;11.52;63.72
61351;DHT22;47119;49.130;9.218;2022-12-07T05:29:57;11.50;63.60
61351;DHT22;47119;49.130;9.218;2022-12-07T05:32:24;11.55;63.71
61351;DHT22;47119;49.130;9.218;2022-12-07T05:34:56;11.52;63.09
61351;DHT22;47119;49.130;9.218;2022-12-07T05:37:25;11.54;63.31
61351;DHT22;47119;49.130;9.218;2022-12-07T05:39:55;11.51;63.38
61351;DHT22;47119;49.130;9.218;2022-12-07T05:42:22;11.52;63.48
61351;DHT22;47119;49.130;9.218;2022-12-07T05:44:49;11.51;63.53
61351;DHT22;47119;49.130;9.218;2022-12-07T05:47:18;11.52;63.65
61351;DHT22;47119;49.130;9.218;2022-12-07T05:49:45;11.54;63.69
61351;DHT22;47119;49.130;9.218;2022-12-07T05:52:14;11.54;63.22
61351;DHT22;47119;49.130;9.218;2022-12-07T05:54:41;11.52;62.84
61351;DHT22;47119;49.130;9.218;2022-12-07T05:57:08;11.50;63.16
61351;DHT22;47119;49.130;9.218;2022-12-07T05:59:35;11.52;63.41
61351;DHT22;47119;49.130;9.218;2022-12-07T06:02:04;11.51;63.27
61351;DHT22;47119;49.130;9.218;2022-12-07T06:04:35;11.48;62.67
61351;DHT22;47119;49.130;9.218;2022-12-07T06:07:05;11.45;62.91
61351;DHT22;47119;49.130;9.218;2022-12-07T06:09:33;11.39;62.98
61351;DHT22;47119;49.130;9.218;2022-12-07T06:12:02;11.46;62.95
61351;DHT22;47119;49.130;9.218;2022-12-07T06:14:47;11.41;63.27
61351;DHT22;47119;49.130;9.218;2022-12-07T06:17:15;11.41;63.38
61351;DHT22;47119;49.130;9.218;2022-12-07T06:19:46;11.44;63.32
61351;DHT22;47119;49.130;9.218;2022-12-07T06:22:18;11.41;63.31
61351;DHT22;47119;49.130;9.218;2022-12-07T06:24:49;11.45;63.46
61351;DHT22;47119;49.130;9.218;2022-12-07T06:27:16;11.50;63.23
61351;DHT22;47119;49.130;9.218;2022-12-07T06:29:44;11.51;63.28
61351;DHT22;47119;49.130;9.218;2022-12-07T06:32:11;11.52;63.36
61351;DHT22;47119;49.130;9.218;2022-12-07T06:34:43;11.55;62.88
61351;DHT22;47119;49.130;9.218;2022-12-07T06:37:12;11.54;62.39
61351;DHT22;47119;49.130;9.218;2022-12-07T06:39:39;11.54;62.44
61351;DHT22;47119;49.130;9.218;2022-12-07T06:42:08;11.59;62.38
61351;DHT22;47119;49.130;9.218;2022-12-07T06:44:35;11.62;61.75
61351;DHT22;47119;49.130;9.218;2022-12-07T06:47:04;11.65;61.67
61351;DHT22;47119;49.130;9.218;2022-12-07T06:49:35;11.66;62.00
61351;DHT22;47119;49.130;9.218;2022-12-07T06:52:05;11.66;61.75
61351;DHT22;47119;49.130;9.218;2022-12-07T06:54:34;11.65;61.75
61351;DHT22;47119;49.130;9.218;2022-12-07T06:57:05;11.61;61.73
61351;DHT22;47119;49.130;9.218;2022-12-07T06:59:35;11.61;61.78
61351;DHT22;47119;49.130;9.218;2022-12-07T07:02:07;11.64;61.21
61351;DHT22;47119;49.130;9.218;2022-12-07T07:04:41;11.59;61.52
61351;DHT22;47119;49.130;9.218;2022-12-07T07:07:11;11.64;62.06
61351;DHT22;47119;49.130;9.218;2022-12-07T07:09:39;11.64;61.76
61351;DHT22;47119;49.130;9.218;2022-12-07T07:12:07;11.62;62.17
61351;DHT22;47119;49.130;9.218;2022-12-07T07:14:34;11.61;61.95
61351;DHT22;47119;49.130;9.218;2022-12-07T07:17:04;11.62;62.40
61351;DHT22;47119;49.130;9.218;2022-12-07T07:19:34;11.61;61.92
61351;DHT22;47119;49.130;9.218;2022-12-07T07:22:02;11.59;62.12
61351;DHT22;47119;49.130;9.218;2022-12-07T07:24:31;11.62;62.10
61351;DHT22;47119;49.130;9.218;2022-12-07T07:27:00;11.61;62.15
61351;DHT22;47119;49.130;9.218;2022-12-07T07:29:27;11.62;62.16
61351;DHT22;47119;49.130;9.218;2022-12-07T07:31:56;11.59;62.37
61351;DHT22;47119;49.130;9.218;2022-12-07T07:34:27;11.61;62.06
61351;DHT22;47119;49.130;9.218;2022-12-07T07:37:16;11.59;61.78
61351;DHT22;47119;49.130;9.218;2022-12-07T07:39:43;11.55;62.28
61351;DHT22;47119;49.130;9.218;2022-12-07T07:42:11;11.55;61.90
61351;DHT22;47119;49.130;9.218;2022-12-07T07:44:42;11.57;61.81
61351;DHT22;47119;49.130;9.218;2022-12-07T07:47:10;11.58;62.05
61351;DHT22;47119;49.130;9.218;2022-12-07T07:49:37;11.57;61.84
61351;DHT22;47119;49.130;9.218;2022-12-07T07:52:05;11.58;61.69
61351;DHT22;47119;49.130;9.218;2022-12-07T07:54:33;11.55;61.62
61351;DHT22;47119;49.130;9.218;2022-12-07T07:57:00;11.59;61.59
61351;DHT22;47119;49.130;9.218;2022-12-07T07:59:30;11.55;61.59
61351;DHT22;47119;49.130;9.218;2022-12-07T08:01:59;11.58;61.28
61351;DHT22;47119;49.130;9.218;2022-12-07T08:04:26;11.57;61.39
61351;DHT22;47119;49.130;9.218;2022-12-07T08:13:36;11.64;61.74
61351;DHT22;47119;49.130;9.218;2022-12-07T08:19:24;11.64;61.61
61351;DHT22;47119;49.130;9.218;2022-12-07T08:21:52;11.58;60.89
61351;DHT22;47119;49.130;9.218;2022-12-07T08:24:20;11.61;61.28
61351;DHT22;47119;49.130;9.218;2022-12-07T08:26:48;11.62;61.54
61351;DHT22;47119;49.130;9.218;2022-12-07T08:29:45;11.59;61.23
61351;DHT22;47119;49.130;9.218;2022-12-07T08:32:16;11.62;61.27
61351;DHT22;47119;49.130;9.218;2022-12-07T08:34:46;11.59;61.23
61351;DHT22;47119;49.130;9.218;2022-12-07T08:37:15;11.58;61.30
61351;DHT22;47119;49.130;9.218;2022-12-07T08:39:43;11.58;61.07
61351;DHT22;47119;49.130;9.218;2022-12-07T08:42:10;11.58;61.00
61351;DHT22;47119;49.130;9.218;2022-12-07T08:44:37;11.57;61.19
61351;DHT22;47119;49.130;9.218;2022-12-07T08:47:09;11.58;61.37
61351;DHT22;47119;49.130;9.218;2022-12-07T08:49:44;11.57;60.97
61351;DHT22;47119;49.130;9.218;2022-12-07T08:52:14;11.58;61.24
61351;DHT22;47119;49.130;9.218;2022-12-07T08:54:42;11.58;61.43
61351;DHT22;47119;49.130;9.218;2022-12-07T08:57:21;11.61;60.50
61351;DHT22;47119;49.130;9.218;2022-12-07T09:00:14;11.65;60.77
61351;DHT22;47119;49.130;9.218;2022-12-07T09:02:46;11.61;60.02
61351;DHT22;47119;49.130;9.218;2022-12-07T09:05:17;11.59;60.02
61351;DHT22;47119;49.130;9.218;2022-12-07T09:07:49;11.64;59.75
61351;DHT22;47119;49.130;9.218;2022-12-07T09:10:26;11.71;59.27
61351;DHT22;47119;49.130;9.218;2022-12-07T09:13:18;11.75;59.29
61351;DHT22;47119;49.130;9.218;2022-12-07T09:15:46;11.82;59.43
61351;DHT22;47119;49.130;9.218;2022-12-07T09:18:14;11.81;58.78
61351;DHT22;47119;49.130;9.218;2022-12-07T09:20:42;11.79;59.02
61351;DHT22;47119;49.130;9.218;2022-12-07T09:26:54;11.76;59.19
61351;DHT22;47119;49.130;9.218;2022-12-07T09:29:43;11.83;58.72
61351;DHT22;47119;49.130;9.218;2022-12-07T09:32:10;11.83;58.88
61351;DHT22;47119;49.130;9.218;2022-12-07T09:34:58;11.82;59.08
61351;DHT22;47119;49.130;9.218;2022-12-07T09:37:55;11.79;59.64
61351;DHT22;47119;49.130;9.218;2022-12-07T09:40:22;11.76;59.19
61351;DHT22;47119;49.130;9.218;2022-12-07T09:42:52;11.78;59.45
61351;DHT22;47119;49.130;9.218;2022-12-07T09:45:27;11.82;59.24
61351;DHT22;47119;49.130;9.218;2022-12-07T09:48:00;11.82;58.96
61351;DHT22;47119;49.130;9.218;2022-12-07T09:51:01;11.76;59.65
61351;DHT22;47119;49.130;9.218;2022-12-07T09:56:49;11.83;59.97
61351;DHT22;47119;49.130;9.218;2022-12-07T09:59:18;11.79;60.15
61351;DHT22;47119;49.130;9.218;2022-12-07T10:02:22;11.81;60.13
61351;DHT22;47119;49.130;9.218;2022-12-07T10:04:59;11.81;59.66
61351;DHT22;47119;49.130;9.218;2022-12-07T10:07:26;11.79;59.99
61351;DHT22;47119;49.130;9.218;2022-12-07T10:09:55;11.81;59.62
61351;DHT22;47119;49.130;9.218;2022-12-07T10:12:22;11.76;60.24
61351;DHT22;47119;49.130;9.218;2022-12-07T10:14:57;11.76;59.87
61351;DHT22;47119;49.130;9.218;2022-12-07T10:17:35;11.83;59.93
61351;DHT22;47119;49.130;9.218;2022-12-07T10:20:18;11.81;59.78
61351;DHT22;47119;49.130;9.218;2022-12-07T10:23:00;11.82;59.82
61351;DHT22;47119;49.130;9.218;2022-12-07T10:25:37;11.81;60.20
61351;DHT22;47119;49.130;9.218;2022-12-07T10:28:13;11.76;60.11
61351;DHT22;47119;49.130;9.218;2022-12-07T10:30:54;11.82;60.13
61351;DHT22;47119;49.130;9.218;2022-12-07T10:33:31;11.81;59.94
61351;DHT22;47119;49.130;9.218;2022-12-07T10:36:22;11.82;60.11
61351;DHT22;47119;49.130;9.218;2022-12-07T10:38:52;11.81;60.37
61351;DHT22;47119;49.130;9.218;2022-12-07T10:42:31;11.79;60.53
61351;DHT22;47119;49.130;9.218;2022-12-07T10:45:24;11.85;60.58
61351;DHT22;47119;49.130;9.218;2022-12-07T10:53:16;11.79;60.72
61351;DHT22;47119;49.130;9.218;2022-12-07T10:56:46;11.81;60.32
61351;DHT22;47119;49.130;9.218;2022-12-07T11:06:34;11.72;60.54
61351;DHT22;47119;49.130;9.218;2022-12-07T11:12:45;11.65;60.55
61351;DHT22;47119;49.130;9.218;2022-12-07T11:15:24;11.68;60.38
61351;DHT22;47119;49.130;9.218;2022-12-07T11:18:00;11.66;60.26
61351;DHT22;47119;49.130;9.218;2022-12-07T11:20:41;11.69;60.41
61351;DHT22;47119;49.130;9.218;2022-12-07T11:23:41;11.71;60.80
61351;DHT22;47119;49.130;9.218;2022-12-07T11:26:24;11.76;60.77
61351;DHT22;47119;49.130;9.218;2022-12-07T11:29:23;11.79;59.87
61351;DHT22;47119;49.130;9.218;2022-12-07T11:32:07;11.81;60.13
61351;DHT22;47119;49.130;9.218;2022-12-07T11:34:54;11.86;59.93
61351;DHT22;47119;49.130;9.218;2022-12-07T11:37:34;11.90;59.01
61351;DHT22;47119;49.130;9.218;2022-12-07T11:40:05;11.90;59.65
61351;DHT22;47119;49.130;9.218;2022-12-07T11:42:50;11.93;59.13
61351;DHT22;47119;49.130;9.218;2022-12-07T11:45:27;11.97;58.74
61351;DHT22;47119;49.130;9.218;2022-12-07T11:48:01;11.96;58.67
61351;DHT22;47119;49.130;9.218;2022-12-07T11:50:37;12.00;58.78
61351;DHT22;47119;49.130;9.218;2022-12-07T11:53:37;12.03;58.65
61351;DHT22;47119;49.130;9.218;2022-12-07T11:56:12;12.03;58.55
61351;DHT22;47119;49.130;9.218;2022-12-07T11:58:51;12.00;59.15
61351;DHT22;47119;49.130;9.218;2022-12-07T12:01:41;12.00;58.85
61351;DHT22;47119;49.130;9.218;2022-12-07T12:04:51;11.96;59.35
61351;DHT22;47119;49.130;9.218;2022-12-07T12:10:19;11.93;60.02
61351;DHT22;47119;49.130;9.218;2022-12-07T12:13:51;12.00;59.32
61351;DHT22;47119;49.130;9.218;2022-12-07T12:17:01;12.03;59.04
61351;DHT22;47119;49.130;9.218;2022-12-07T12:21:00;11.90;59.03
61351;DHT22;47119;49.130;9.218;2022-12-07T12:23:48;11.89;59.12
61351;DHT22;47119;49.130;9.218;2022-12-07T12:27:01;11.90;59.79
61351;DHT22;47119;49.130;9.218;2022-12-07T12:29:34;11.89;59.90
61351;DHT22;47119;49.130;9.218;2022-12-07T12:32:15;11.86;60.20
61351;DHT22;47119;49.130;9.218;2022-12-07T12:38:29;11.86;60.02
61351;DHT22;47119;49.130;9.218;2022-12-07T12:41:01;11.89;60.39
61351;DHT22;47119;49.130;9.218;2022-12-07T12:43:43;11.89;60.23
61351;DHT22;47119;49.130;9.218;2022-12-07T12:54:20;11.86;60.27
61351;DHT22;47119;49.130;9.218;2022-12-07T12:56:59;11.89;60.38
61351;DHT22;47119;49.130;9.218;2022-12-07T12:59:35;11.85;60.31
61351;DHT22;47119;49.130;9.218;2022-12-07T13:02:16;11.83;60.51
61351;DHT22;47119;49.130;9.218;2022-12-07T13:04:53;11.89;60.62
61351;DHT22;47119;49.130;9.218;2022-12-07T13:10:53;11.83;60.80
61351;DHT22;47119;49.130;9.218;2022-12-07T13:13:32;11.82;60.54
61351;DHT22;47119;49.130;9.218;2022-12-07T13:20:53;11.81;60.71
61351;DHT22;47119;49.130;9.218;2022-12-07T13:24:36;11.85;60.83
61351;DHT22;47119;49.130;9.218;2022-12-07T13:27:11;11.86;60.50
61351;DHT22;47119;49.130;9.218;2022-12-07T13:30:01;11.86;60.60
61351;DHT22;47119;49.130;9.218;2022-12-07T13:32:51;11.86;61.02
61351;DHT22;47119;49.130;9.218;2022-12-07T13:35:37;11.86;60.75
61351;DHT22;47119;49.130;9.218;2022-12-07T13:38:27;11.89;60.63
61351;DHT22;47119;49.130;9.218;2022-12-07T13:41:12;11.93;60.88
61351;DHT22;47119;49.130;9.218;2022-12-07T13:43:45;11.85;60.64
61351;DHT22;47119;49.130;9.218;2022-12-07T13:46:18;11.82;60.69
61351;DHT22;47119;49.130;9.218;2022-12-07T13:48:54;11.83;60.82
61351;DHT22;47119;49.130;9.218;2022-12-07T13:54:49;11.86;60.80
61351;DHT22;47119;49.130;9.218;2022-12-07T13:57:29;11.87;60.21
61351;DHT22;47119;49.130;9.218;2022-12-07T14:00:00;11.92;59.91
61351;DHT22;47119;49.130;9.218;2022-12-07T14:03:23;11.97;59.74
61351;DHT22;47119;49.130;9.218;2022-12-07T14:06:15;11.97;59.50
61351;DHT22;47119;49.130;9.218;2022-12-07T14:09:16;12.02;59.19
61351;DHT22;47119;49.130;9.218;2022-12-07T14:11:46;12.02;59.31
61351;DHT22;47119;49.130;9.218;2022-12-07T14:14:20;12.06;58.87
61351;DHT22;47119;49.130;9.218;2022-12-07T14:16:58;12.05;59.03
61351;DHT22;47119;49.130;9.218;2022-12-07T14:19:45;12.00;59.13
61351;DHT22;47119;49.130;9.218;2022-12-07T14:22:41;12.00;59.40
61351;DHT22;47119;49.130;9.218;2022-12-07T14:29:59;12.00;59.24
61351;DHT22;47119;49.130;9.218;2022-12-07T14:32:28;11.97;59.20
61351;DHT22;47119;49.130;9.218;2022-12-07T14:35:11;11.99;59.18
61351;DHT22;47119;49.130;9.218;2022-12-07T14:37:42;11.97;59.82
61351;DHT22;47119;49.130;9.218;2022-12-07T14:40:21;11.97;59.44
61351;DHT22;47119;49.130;9.218;2022-12-07T14:43:03;11.97;59.24
61351;DHT22;47119;49.130;9.218;2022-12-07T14:45:34;11.99;59.54
61351;DHT22;47119;49.130;9.218;2022-12-07T14:48:01;11.99;59.00
61351;DHT22;47119;49.130;9.218;2022-12-07T14:50:45;11.96;59.68
61351;DHT22;47119;49.130;9.218;2022-12-07T14:53:29;11.96;59.87
61351;DHT22;47119;49.130;9.218;2022-12-07T14:56:01;11.96;59.69
61351;DHT22;47119;49.130;9.218;2022-12-07T14:58:31;11.87;59.62
61351;DHT22;47119;49.130;9.218;2022-12-07T15:01:00;11.93;60.02
61351;DHT22;47119;49.130;9.218;2022-12-07T15:03:28;12.02;59.89
61351;DHT22;47119;49.130;9.218;2022-12-07T15:05:59;11.97;59.79
61351;DHT22;47119;49.130;9.218;2022-12-07T15:08:27;11.99;59.92
61351;DHT22;47119;49.130;9.218;2022-12-07T15:10:54;11.96;59.60
61351;DHT22;47119;49.130;9.218;2022-12-07T15:13:21;11.96;59.84
61351;DHT22;47119;49.130;9.218;2022-12-07T15:16:10;11.93;59.80
61351;DHT22;47119;49.130;9.218;2022-12-07T15:18:39;11.89;59.93
61351;DHT22;47119;49.130;9.218;2022-12-07T15:21:12;11.87;60.09
61351;DHT22;47119;49.130;9.218;2022-12-07T15:23:42;11.89;59.98
61351;DHT22;47119;49.130;9.218;2022-12-07T15:26:10;11.86;60.20
61351;DHT22;47119;49.130;9.218;2022-12-07T15:28:37;11.92;60.21
61351;DHT22;47119;49.130;9.218;2022-12-07T15:31:11;11.92;59.83
61351;DHT22;47119;49.130;9.218;2022-12-07T15:33:40;11.92;59.94
61351;DHT22;47119;49.130;9.218;2022-12-07T15:36:18;11.93;60.36
61351;DHT22;47119;49.130;9.218;2022-12-07T15:38:50;11.92;60.16
61351;DHT22;47119;49.130;9.218;2022-12-07T15:41:18;11.87;60.46
61351;DHT22;47119;49.130;9.218;2022-12-07T15:43:51;11.92;60.42
61351;DHT22;47119;49.130;9.218;2022-12-07T15:46:40;11.96;59.99
61351;DHT22;47119;49.130;9.218;2022-12-07T15:49:11;11.93;60.23
61351;DHT22;47119;49.130;9.218;2022-12-07T15:51:40;11.86;59.93
61351;DHT22;47119;49.130;9.218;2022-12-07T15:54:13;11.92;60.11
61351;DHT22;47119;49.130;9.218;2022-12-07T15:56:45;11.87;59.88
61351;DHT22;47119;49.130;9.218;2022-12-07T15:59:13;11.86;60.57
61351;DHT22;47119;49.130;9.218;2022-12-07T16:01:45;11.86;60.45
61351;DHT22;47119;49.130;9.218;2022-12-07T16:04:13;11.87;60.71
61351;DHT22;47119;49.130;9.218;2022-12-07T16:06:42;11.82;60.60
61351;DHT22;47119;49.130;9.218;2022-12-07T16:09:10;11.82;60.62
61351;DHT22;47119;49.130;9.218;2022-12-07T16:12:02;11.81;60.67
61351;DHT22;47119;49.130;9.218;2022-12-07T16:14:32;11.81;60.85
61351;DHT22;47119;49.130;9.218;2022-12-07T16:17:00;11.81;60.33
61351;DHT22;47119;49.130;9.218;2022-12-07T16:19:28;11.81;60.54
61351;DHT22;47119;49.130;9.218;2022-12-07T16:21:55;11.79;60.44
61351;DHT22;47119;49.130;9.218;2022-12-07T16:24:22;11.83;59.74
61351;DHT22;47119;49.130;9.218;2022-12-07T16:26:50;11.74;60.36
61351;DHT22;47119;49.130;9.218;2022-12-07T16:29:20;11.74;60.51
61351;DHT22;47119;49.130;9.218;2022-12-07T16:31:51;11.76;60.56
61351;DHT22;47119;49.130;9.218;2022-12-07T16:34:20;11.79;60.91
61351;DHT22;47119;49.130;9.218;2022-12-07T16:36:47;11.75;60.60
61351;DHT22;47119;49.130;9.218;2022-12-07T16:39:14;11.78;60.91
61351;DHT22;47119;49.130;9.218;2022-12-07T16:41:46;11.75;60.50
61351;DHT22;47119;49.130;9.218;2022-12-07T16:44:13;11.74;60.47
61351;DHT22;47119;49.130;9.218;2022-12-07T16:47:06;11.74;60.58
61351;DHT22;47119;49.130;9.218;2022-12-07T16:49:36;11.74;60.62
61351;DHT22;47119;49.130;9.218;2022-12-07T16:52:05;11.74;60.88
61351;DHT22;47119;49.130;9.218;2022-12-07T16:54:42;11.69;60.67
61351;DHT22;47119;49.130;9.218;2022-12-07T16:57:16;11.66;60.87
61351;DHT22;47119;49.130;9.218;2022-12-07T16:59:47;11.65;60.94
61351;DHT22;47119;49.130;9.218;2022-12-07T17:02:17;11.59;61.10
61351;DHT22;47119;49.130;9.218;2022-12-07T17:04:46;11.57;60.71
61351;DHT22;47119;49.130;9.218;2022-12-07T17:07:15;11.58;61.15
61351;DHT22;47119;49.130;9.218;2022-12-07T17:09:43;11.57;61.08
61351;DHT22;47119;49.130;9.218;2022-12-07T17:12:13;11.61;61.28
61351;DHT22;47119;49.130;9.218;2022-12-07T17:14:40;11.65;61.40
61351;DHT22;47119;49.130;9.218;2022-12-07T17:17:25;11.69;61.02
61351;DHT22;47119;49.130;9.218;2022-12-07T17:19:54;11.68;60.91
61351;DHT22;47119;49.130;9.218;2022-12-07T17:22:21;11.69;60.64
61351;DHT22;47119;49.130;9.218;2022-12-07T17:24:50;11.71;60.60